createdAt,value
2017-07-23T00:00:06.222Z,22.13
2017-07-23T00:00:32.445Z,22.17
2017-07-23T00:00:58.583Z,22.23
2017-07-23T00:01:24.771Z,22.14
2017-07-23T00:01:50.907Z,22.15
2017-07-23T00:02:17.152Z,22.14
2017-07-23T00:02:43.338Z,22.04
2017-07-23T00:03:09.473Z,22.13
2017-07-23T00:03:35.625Z,22.11
2017-07-23T00:04:01.849Z,22.11
2017-07-23T00:04:27.987Z,22.1
2017-07-23T00:04:54.138Z,22.1
2017-07-23T00:05:20.266Z,22.02
2017-07-23T00:05:46.378Z,22.02
2017-07-23T00:06:12.520Z,22.14
2017-07-23T00:06:38.739Z,22.15
2017-07-23T00:07:04.891Z,22.13
2017-07-23T00:07:31.083Z,22.13
2017-07-23T00:07:57.189Z,22.1
2017-07-23T00:08:23.388Z,22.15
2017-07-23T00:08:49.618Z,22.15
2017-07-23T00:09:15.716Z,22.15
2017-07-23T00:09:41.884Z,22.15
2017-07-23T00:10:08.079Z,22.1
2017-07-23T00:10:34.192Z,22.14
2017-07-23T00:11:00.335Z,22.07
2017-07-23T00:11:26.486Z,22.11
2017-07-23T00:11:52.636Z,22.14
2017-07-23T00:12:18.754Z,22.14
2017-07-23T00:12:44.958Z,22.2
2017-07-23T00:13:11.094Z,22.11
2017-07-23T00:13:37.315Z,22.04
2017-07-23T00:14:03.464Z,22.04
2017-07-23T00:14:29.628Z,22.15
2017-07-23T00:14:55.845Z,22.18
2017-07-23T00:15:22.022Z,22.18
2017-07-23T00:15:48.188Z,22.13
2017-07-23T00:16:14.338Z,22.17
2017-07-23T00:16:40.526Z,22.2
2017-07-23T00:17:06.661Z,22.11
2017-07-23T00:17:32.809Z,22.1
2017-07-23T00:17:58.983Z,21.98
2017-07-23T00:18:25.204Z,22.06
2017-07-23T00:18:51.419Z,22.08
2017-07-23T00:19:17.558Z,21.95
2017-07-23T00:19:43.680Z,22.04
2017-07-23T00:20:09.902Z,22
2017-07-23T00:20:36.007Z,22.02
2017-07-23T00:21:02.186Z,21.99
2017-07-23T00:21:28.344Z,21.98
2017-07-23T00:21:54.483Z,21.93
2017-07-23T00:22:20.653Z,21.89
2017-07-23T00:22:46.777Z,21.96
2017-07-23T00:23:12.919Z,22.04
2017-07-23T00:23:39.072Z,21.98
2017-07-23T00:24:05.181Z,22.08
2017-07-23T00:24:31.326Z,21.93
2017-07-23T00:24:57.545Z,21.93
2017-07-23T00:25:23.708Z,21.93
2017-07-23T00:25:49.856Z,21.98
2017-07-23T00:26:16.105Z,21.93
2017-07-23T00:26:42.219Z,21.98
2017-07-23T00:27:08.327Z,21.98
2017-07-23T00:27:34.544Z,21.92
2017-07-23T00:28:00.685Z,21.98
2017-07-23T00:28:26.850Z,22.06
2017-07-23T00:28:53.036Z,22
2017-07-23T00:29:19.264Z,22.04
2017-07-23T00:29:45.475Z,21.92
2017-07-23T00:30:11.614Z,21.85
2017-07-23T00:30:37.784Z,21.92
2017-07-23T00:31:03.972Z,21.95
2017-07-23T00:31:30.124Z,21.96
2017-07-23T00:31:56.261Z,22.06
2017-07-23T00:32:22.479Z,21.99
2017-07-23T00:32:48.662Z,21.95
2017-07-23T00:33:14.808Z,22.02
2017-07-23T00:33:40.993Z,22
2017-07-23T00:34:07.179Z,22
2017-07-23T00:34:33.377Z,21.95
2017-07-23T00:34:59.494Z,21.89
2017-07-23T00:35:25.684Z,21.91
2017-07-23T00:35:51.860Z,21.85
2017-07-23T00:36:18.059Z,21.8
2017-07-23T00:36:44.244Z,21.8
2017-07-23T00:37:10.419Z,21.85
2017-07-23T00:37:36.589Z,21.85
2017-07-23T00:38:02.747Z,21.8
2017-07-23T00:38:28.924Z,21.76
2017-07-23T00:38:55.064Z,21.76
2017-07-23T00:39:21.247Z,21.79
2017-07-23T00:39:47.456Z,21.85
2017-07-23T00:40:13.634Z,21.79
2017-07-23T00:40:39.805Z,21.91
2017-07-23T00:41:05.972Z,21.89
2017-07-23T00:41:32.099Z,21.92
2017-07-23T00:41:58.215Z,21.98
2017-07-23T00:42:24.357Z,21.96
2017-07-23T00:42:50.510Z,21.91
2017-07-23T00:43:16.692Z,22.04
2017-07-23T00:43:42.805Z,22
2017-07-23T00:44:08.959Z,21.99
2017-07-23T00:44:35.147Z,21.95
2017-07-23T00:45:01.318Z,21.93
2017-07-23T00:45:27.465Z,21.98
2017-07-23T00:45:53.609Z,21.96
2017-07-23T00:46:19.764Z,21.95
2017-07-23T00:46:45.922Z,21.98
2017-07-23T00:47:12.054Z,21.93
2017-07-23T00:47:38.238Z,21.99
2017-07-23T00:48:04.363Z,21.98
2017-07-23T00:48:30.529Z,21.93
2017-07-23T00:48:56.730Z,22.06
2017-07-23T00:49:22.915Z,22
2017-07-23T00:49:49.116Z,21.95
2017-07-23T00:50:15.257Z,21.95
2017-07-23T00:50:41.475Z,21.98
2017-07-23T00:51:07.616Z,21.98
2017-07-23T00:51:33.772Z,21.95
2017-07-23T00:51:59.878Z,21.92
2017-07-23T00:52:26.088Z,21.93
2017-07-23T00:52:52.335Z,21.93
2017-07-23T00:53:18.535Z,21.96
2017-07-23T00:53:44.710Z,21.96
2017-07-23T00:54:10.898Z,21.99
2017-07-23T00:54:37.033Z,21.95
2017-07-23T00:55:03.203Z,21.92
2017-07-23T00:55:29.365Z,21.96
2017-07-23T00:55:55.548Z,22.04
2017-07-23T00:56:21.657Z,22
2017-07-23T00:56:47.781Z,21.99
2017-07-23T00:57:13.958Z,21.95
2017-07-23T00:57:40.175Z,21.96
2017-07-23T00:58:06.287Z,21.92
2017-07-23T00:58:32.428Z,21.92
2017-07-23T00:58:58.560Z,21.88
2017-07-23T00:59:24.741Z,21.88
2017-07-23T00:59:50.874Z,21.79
2017-07-23T01:00:17.095Z,21.8
2017-07-23T01:00:43.306Z,21.77
2017-07-23T01:01:09.504Z,21.89
2017-07-23T01:01:35.688Z,21.83
2017-07-23T01:02:01.819Z,21.85
2017-07-23T01:02:27.957Z,21.85
2017-07-23T01:02:54.136Z,21.88
2017-07-23T01:03:20.312Z,21.89
2017-07-23T01:03:46.462Z,21.83
2017-07-23T01:04:12.645Z,21.91
2017-07-23T01:04:38.778Z,21.91
2017-07-23T01:05:04.934Z,21.85
2017-07-23T01:05:31.063Z,21.79
2017-07-23T01:05:57.244Z,21.67
2017-07-23T01:06:23.339Z,21.75
2017-07-23T01:06:49.530Z,21.72
2017-07-23T01:07:15.669Z,21.73
2017-07-23T01:07:41.814Z,21.75
2017-07-23T01:08:07.958Z,21.72
2017-07-23T01:08:34.138Z,21.67
2017-07-23T01:09:00.322Z,21.69
2017-07-23T01:09:26.430Z,21.75
2017-07-23T01:09:52.605Z,21.75
2017-07-23T01:10:18.851Z,21.82
2017-07-23T01:10:44.963Z,21.88
2017-07-23T01:11:11.160Z,21.93
2017-07-23T01:11:37.318Z,21.95
2017-07-23T01:12:03.486Z,21.93
2017-07-23T01:12:29.680Z,21.98
2017-07-23T01:12:55.871Z,22.02
2017-07-23T01:13:22.050Z,21.99
2017-07-23T01:13:48.264Z,21.85
2017-07-23T01:14:14.436Z,21.95
2017-07-23T01:14:40.577Z,21.88
2017-07-23T01:15:06.735Z,21.77
2017-07-23T01:15:32.903Z,21.79
2017-07-23T01:15:59.099Z,21.7
2017-07-23T01:16:25.227Z,21.67
2017-07-23T01:16:51.377Z,21.72
2017-07-23T01:17:17.547Z,21.72
2017-07-23T01:17:43.736Z,21.67
2017-07-23T01:18:09.883Z,21.69
2017-07-23T01:18:36.054Z,21.77
2017-07-23T01:19:02.236Z,21.76
2017-07-23T01:19:28.455Z,21.62
2017-07-23T01:19:54.644Z,21.73
2017-07-23T01:20:20.828Z,21.58
2017-07-23T01:20:46.951Z,21.64
2017-07-23T01:21:13.180Z,21.62
2017-07-23T01:21:39.352Z,21.62
2017-07-23T01:22:05.542Z,21.57
2017-07-23T01:22:31.684Z,21.58
2017-07-23T01:22:57.798Z,21.58
2017-07-23T01:23:23.925Z,21.62
2017-07-23T01:23:50.074Z,21.6
2017-07-23T01:24:16.211Z,21.58
2017-07-23T01:24:42.370Z,21.57
2017-07-23T01:25:08.513Z,21.6
2017-07-23T01:25:34.659Z,21.67
2017-07-23T01:26:00.843Z,21.62
2017-07-23T01:26:27.008Z,21.57
2017-07-23T01:26:53.169Z,21.61
2017-07-23T01:27:19.346Z,21.55
2017-07-23T01:27:45.539Z,21.5
2017-07-23T01:28:11.721Z,21.46
2017-07-23T01:28:37.910Z,21.51
2017-07-23T01:29:04.129Z,21.48
2017-07-23T01:29:30.283Z,21.58
2017-07-23T01:29:56.469Z,21.57
2017-07-23T01:30:22.692Z,21.57
2017-07-23T01:30:48.828Z,21.46
2017-07-23T01:31:14.938Z,21.43
2017-07-23T01:31:41.098Z,21.51
2017-07-23T01:32:07.286Z,21.5
2017-07-23T01:32:33.476Z,21.48
2017-07-23T01:32:59.597Z,21.45
2017-07-23T01:33:25.755Z,21.45
2017-07-23T01:33:51.914Z,21.5
2017-07-23T01:34:18.096Z,21.52
2017-07-23T01:34:44.282Z,21.5
2017-07-23T01:35:10.453Z,21.46
2017-07-23T01:35:36.596Z,21.5
2017-07-23T01:36:02.806Z,21.46
2017-07-23T01:36:28.928Z,21.45
2017-07-23T01:36:55.085Z,21.42
2017-07-23T01:37:21.224Z,21.42
2017-07-23T01:37:47.400Z,21.43
2017-07-23T01:38:13.592Z,21.48
2017-07-23T01:38:39.700Z,21.45
2017-07-23T01:39:05.815Z,21.36
2017-07-23T01:39:32.041Z,21.37
2017-07-23T01:39:58.185Z,21.51
2017-07-23T01:40:24.292Z,21.36
2017-07-23T01:40:50.423Z,21.39
2017-07-23T01:41:16.598Z,21.27
2017-07-23T01:41:42.777Z,21.33
2017-07-23T01:42:08.887Z,21.22
2017-07-23T01:42:35.030Z,21.25
2017-07-23T01:43:01.191Z,21.2
2017-07-23T01:43:27.304Z,21.29
2017-07-23T01:43:53.414Z,21.29
2017-07-23T01:44:19.604Z,21.27
2017-07-23T01:44:45.750Z,21.39
2017-07-23T01:45:11.887Z,21.39
2017-07-23T01:45:38.070Z,21.36
2017-07-23T01:46:04.224Z,21.32
2017-07-23T01:46:30.361Z,21.35
2017-07-23T01:46:56.484Z,21.35
2017-07-23T01:47:22.653Z,21.36
2017-07-23T01:47:48.847Z,21.42
2017-07-23T01:48:14.992Z,21.37
2017-07-23T01:48:41.156Z,21.39
2017-07-23T01:49:07.401Z,21.43
2017-07-23T01:49:33.587Z,21.37
2017-07-23T01:49:59.697Z,21.37
2017-07-23T01:50:25.884Z,21.32
2017-07-23T01:50:52.041Z,21.21
2017-07-23T01:51:18.212Z,21.24
2017-07-23T01:51:44.352Z,21.12
2017-07-23T01:52:10.569Z,21.11
2017-07-23T01:52:36.769Z,21.14
2017-07-23T01:53:02.922Z,21.15
2017-07-23T01:53:29.086Z,21.24
2017-07-23T01:53:55.271Z,21.24
2017-07-23T01:54:21.397Z,21.25
2017-07-23T01:54:47.531Z,21.2
2017-07-23T01:55:13.688Z,21.17
2017-07-23T01:55:39.845Z,21.12
2017-07-23T01:56:06.018Z,21.17
2017-07-23T01:56:32.213Z,21.11
2017-07-23T01:56:58.339Z,21.14
2017-07-23T01:57:24.450Z,21.07
2017-07-23T01:57:50.589Z,21.09
2017-07-23T01:58:16.805Z,21.17
2017-07-23T01:58:42.952Z,21.14
2017-07-23T01:59:09.142Z,21.07
2017-07-23T01:59:35.308Z,21.07
2017-07-23T02:00:01.477Z,21.21
2017-07-23T02:00:27.634Z,21.22
2017-07-23T02:00:53.808Z,21.25
2017-07-23T02:01:19.972Z,21.2
2017-07-23T02:01:52.374Z,21.2
2017-07-23T02:02:18.557Z,21.17
2017-07-23T02:02:44.773Z,21.24
2017-07-23T02:03:11.001Z,21.25
2017-07-23T02:03:37.202Z,21.22
2017-07-23T02:04:03.391Z,21.15
2017-07-23T02:04:29.570Z,21.27
2017-07-23T02:04:55.761Z,21.2
2017-07-23T02:05:21.954Z,21.07
2017-07-23T02:05:48.157Z,21.15
2017-07-23T02:06:14.296Z,21.12
2017-07-23T02:06:40.480Z,21.12
2017-07-23T02:07:06.598Z,21.06
2017-07-23T02:07:32.736Z,21.07
2017-07-23T02:07:58.882Z,21.05
2017-07-23T02:08:25.011Z,21.15
2017-07-23T02:08:51.145Z,21.11
2017-07-23T02:09:17.296Z,21.14
2017-07-23T02:09:43.436Z,21.09
2017-07-23T02:10:09.621Z,21.11
2017-07-23T02:10:35.803Z,21.11
2017-07-23T02:11:01.943Z,21.05
2017-07-23T02:11:28.065Z,21.05
2017-07-23T02:11:54.254Z,21.11
2017-07-23T02:12:20.372Z,21.11
2017-07-23T02:12:46.508Z,21.11
2017-07-23T02:13:12.726Z,21.14
2017-07-23T02:13:38.892Z,21.15
2017-07-23T02:14:05.065Z,21.07
2017-07-23T02:14:31.221Z,21.14
2017-07-23T02:14:57.336Z,21.17
2017-07-23T02:15:23.518Z,21.14
2017-07-23T02:15:49.659Z,21.15
2017-07-23T02:16:15.827Z,21.18
2017-07-23T02:16:42.019Z,21.07
2017-07-23T02:17:08.218Z,21.17
2017-07-23T02:17:34.420Z,21.24
2017-07-23T02:18:00.576Z,21.24
2017-07-23T02:18:26.777Z,21.22
2017-07-23T02:18:52.915Z,21.21
2017-07-23T02:19:19.081Z,21.11
2017-07-23T02:19:45.222Z,21.24
2017-07-23T02:20:11.333Z,21.2
2017-07-23T02:20:37.482Z,21.07
2017-07-23T02:21:03.596Z,21.11
2017-07-23T02:21:29.750Z,21.11
2017-07-23T02:21:55.924Z,21.09
2017-07-23T02:22:22.095Z,21.12
2017-07-23T02:22:48.279Z,21.12
2017-07-23T02:23:14.425Z,21.07
2017-07-23T02:23:40.587Z,21.15
2017-07-23T02:24:06.775Z,21.09
2017-07-23T02:24:32.926Z,21.06
2017-07-23T02:24:59.123Z,21.11
2017-07-23T02:25:25.242Z,20.93
2017-07-23T02:25:51.439Z,20.9
2017-07-23T02:26:17.554Z,20.95
2017-07-23T02:26:43.767Z,20.96
2017-07-23T02:27:09.901Z,20.95
2017-07-23T02:27:36.087Z,20.85
2017-07-23T02:28:02.269Z,20.85
2017-07-23T02:28:28.463Z,20.9
2017-07-23T02:28:54.613Z,20.93
2017-07-23T02:29:20.802Z,20.85
2017-07-23T02:29:46.962Z,20.87
2017-07-23T02:30:13.148Z,20.82
2017-07-23T02:30:39.364Z,20.85
2017-07-23T02:31:05.530Z,20.87
2017-07-23T02:31:31.700Z,20.82
2017-07-23T02:31:57.905Z,20.78
2017-07-23T02:32:24.053Z,20.77
2017-07-23T02:32:50.302Z,20.74
2017-07-23T02:33:16.491Z,20.78
2017-07-23T02:33:42.702Z,20.84
2017-07-23T02:34:08.897Z,20.78
2017-07-23T02:34:35.118Z,20.74
2017-07-23T02:35:01.320Z,20.81
2017-07-23T02:35:27.506Z,20.95
2017-07-23T02:35:53.652Z,20.95
2017-07-23T02:36:19.847Z,20.92
2017-07-23T02:36:45.976Z,20.87
2017-07-23T02:37:12.150Z,20.87
2017-07-23T02:37:38.352Z,20.85
2017-07-23T02:38:04.498Z,20.85
2017-07-23T02:38:30.731Z,20.84
2017-07-23T02:38:56.970Z,20.77
2017-07-23T02:39:23.146Z,20.72
2017-07-23T02:40:19.125Z,20.72
2017-07-23T02:40:45.336Z,20.77
2017-07-23T02:41:11.526Z,20.7
2017-07-23T02:41:37.689Z,20.69
2017-07-23T02:42:03.899Z,20.66
2017-07-23T02:42:30.055Z,20.63
2017-07-23T02:42:56.285Z,20.69
2017-07-23T02:43:22.487Z,20.77
2017-07-23T02:43:48.633Z,20.77
2017-07-23T02:44:14.780Z,20.75
2017-07-23T02:44:40.941Z,20.81
2017-07-23T02:45:07.134Z,20.74
2017-07-23T02:45:33.344Z,20.7
2017-07-23T02:45:59.535Z,20.85
2017-07-23T02:46:25.673Z,20.82
2017-07-23T02:46:51.841Z,20.88
2017-07-23T02:47:18.030Z,20.85
2017-07-23T02:47:44.241Z,20.85
2017-07-23T02:48:10.348Z,20.9
2017-07-23T02:48:36.543Z,20.92
2017-07-23T02:49:02.692Z,20.9
2017-07-23T02:49:28.858Z,20.97
2017-07-23T02:49:55.039Z,20.95
2017-07-23T02:50:21.281Z,20.99
2017-07-23T02:50:47.473Z,20.95
2017-07-23T02:51:13.658Z,20.95
2017-07-23T02:51:39.846Z,20.9
2017-07-23T02:52:06.040Z,20.7
2017-07-23T02:52:32.249Z,20.65
2017-07-23T02:52:58.441Z,20.6
2017-07-23T02:53:24.611Z,20.6
2017-07-23T02:53:50.723Z,20.7
2017-07-23T02:54:16.916Z,20.65
2017-07-23T02:54:43.061Z,20.69
2017-07-23T02:55:09.248Z,20.67
2017-07-23T02:55:35.445Z,20.7
2017-07-23T02:56:01.676Z,20.63
2017-07-23T02:56:27.864Z,20.69
2017-07-23T02:56:53.971Z,20.67
2017-07-23T02:57:20.142Z,20.74
2017-07-23T02:57:46.326Z,20.78
2017-07-23T02:58:12.504Z,20.74
2017-07-23T02:58:38.672Z,20.74
2017-07-23T02:59:04.866Z,20.77
2017-07-23T02:59:31.011Z,20.74
2017-07-23T02:59:57.148Z,20.69
2017-07-23T03:00:23.292Z,20.65
2017-07-23T03:00:49.476Z,20.67
2017-07-23T03:01:15.616Z,20.59
2017-07-23T03:01:41.791Z,20.55
2017-07-23T03:02:08.028Z,20.44
2017-07-23T03:02:34.150Z,20.5
2017-07-23T03:03:00.293Z,20.55
2017-07-23T03:03:26.451Z,20.59
2017-07-23T03:03:52.645Z,20.58
2017-07-23T03:04:18.743Z,20.59
2017-07-23T03:04:44.849Z,20.47
2017-07-23T03:05:11.018Z,20.47
2017-07-23T03:05:37.110Z,20.5
2017-07-23T03:06:03.297Z,20.48
2017-07-23T03:06:29.447Z,20.43
2017-07-23T03:06:55.584Z,20.4
2017-07-23T03:07:21.730Z,20.51
2017-07-23T03:07:47.898Z,20.5
2017-07-23T03:08:14.090Z,20.39
2017-07-23T03:08:40.210Z,20.37
2017-07-23T03:09:06.299Z,20.5
2017-07-23T03:09:32.465Z,20.41
2017-07-23T03:09:58.668Z,20.26
2017-07-23T03:10:24.759Z,20.43
2017-07-23T03:10:50.914Z,20.32
2017-07-23T03:11:17.043Z,20.31
2017-07-23T03:11:43.158Z,20.26
2017-07-23T03:12:09.320Z,20.32
2017-07-23T03:12:35.447Z,20.31
2017-07-23T03:13:01.534Z,20.34
2017-07-23T03:13:27.710Z,20.28
2017-07-23T03:13:53.871Z,20.43
2017-07-23T03:14:20.015Z,20.37
2017-07-23T03:14:46.138Z,20.32
2017-07-23T03:15:12.299Z,20.28
2017-07-23T03:15:38.420Z,20.29
2017-07-23T03:16:04.513Z,20.29
2017-07-23T03:16:30.680Z,20.28
2017-07-23T03:16:56.804Z,20.16
2017-07-23T03:17:23.010Z,20.28
2017-07-23T03:17:49.128Z,20.21
2017-07-23T03:18:15.272Z,20.24
2017-07-23T03:18:41.407Z,20.18
2017-07-23T03:19:07.555Z,20.22
2017-07-23T03:19:33.672Z,20.24
2017-07-23T03:19:59.885Z,20.28
2017-07-23T03:20:26.037Z,20.24
2017-07-23T03:20:52.198Z,20.22
2017-07-23T03:21:18.335Z,20.21
2017-07-23T03:21:44.461Z,20.28
2017-07-23T03:22:10.577Z,20.24
2017-07-23T03:22:36.705Z,20.19
2017-07-23T03:23:02.845Z,20.26
2017-07-23T03:23:29.040Z,20.32
2017-07-23T03:23:55.156Z,20.31
2017-07-23T03:24:21.294Z,20.36
2017-07-23T03:24:47.482Z,20.36
2017-07-23T03:25:13.609Z,20.29
2017-07-23T03:25:39.974Z,20.32
2017-07-23T03:26:06.128Z,20.26
2017-07-23T03:26:32.317Z,20.4
2017-07-23T03:26:58.433Z,20.41
2017-07-23T03:27:24.582Z,20.44
2017-07-23T03:27:50.744Z,20.36
2017-07-23T03:28:16.858Z,20.41
2017-07-23T03:28:43.039Z,20.41
2017-07-23T03:29:09.181Z,20.31
2017-07-23T03:29:35.342Z,20.48
2017-07-23T03:30:01.481Z,20.44
2017-07-23T03:30:27.641Z,20.44
2017-07-23T03:30:53.790Z,20.41
2017-07-23T03:31:20.001Z,20.43
2017-07-23T03:31:46.118Z,20.48
2017-07-23T03:32:12.265Z,20.43
2017-07-23T03:32:38.401Z,20.44
2017-07-23T03:33:04.574Z,20.44
2017-07-23T03:33:30.754Z,20.43
2017-07-23T03:33:56.873Z,20.39
2017-07-23T03:34:23.048Z,20.44
2017-07-23T03:34:49.185Z,20.62
2017-07-23T03:35:15.348Z,20.56
2017-07-23T03:35:41.526Z,20.58
2017-07-23T03:36:07.642Z,20.58
2017-07-23T03:36:33.826Z,20.43
2017-07-23T03:36:59.985Z,20.44
2017-07-23T03:37:26.122Z,20.48
2017-07-23T03:37:52.271Z,20.43
2017-07-23T03:38:18.431Z,20.4
2017-07-23T03:38:44.576Z,20.32
2017-07-23T03:39:10.744Z,20.48
2017-07-23T03:39:36.896Z,20.43
2017-07-23T03:40:03.000Z,20.31
2017-07-23T03:40:29.163Z,20.34
2017-07-23T03:40:55.299Z,20.31
2017-07-23T03:41:21.398Z,20.28
2017-07-23T03:41:47.588Z,20.29
2017-07-23T03:42:13.758Z,20.29
2017-07-23T03:42:39.857Z,20.36
2017-07-23T03:43:05.990Z,20.34
2017-07-23T03:43:32.114Z,20.32
2017-07-23T03:43:58.278Z,20.34
2017-07-23T03:44:24.438Z,20.28
2017-07-23T03:44:50.537Z,20.25
2017-07-23T03:45:16.691Z,20.25
2017-07-23T03:45:42.782Z,20.25
2017-07-23T03:46:08.926Z,20.32
2017-07-23T03:46:35.058Z,20.31
2017-07-23T03:47:01.202Z,20.36
2017-07-23T03:47:27.368Z,20.39
2017-07-23T03:47:53.501Z,20.4
2017-07-23T03:48:19.625Z,20.31
2017-07-23T03:48:45.740Z,20.48
2017-07-23T03:49:11.898Z,20.32
2017-07-23T03:49:38.051Z,20.37
2017-07-23T03:50:04.142Z,20.41
2017-07-23T03:50:30.295Z,20.47
2017-07-23T03:50:56.415Z,20.41
2017-07-23T03:51:22.601Z,20.5
2017-07-23T03:51:48.751Z,20.4
2017-07-23T03:52:14.868Z,20.43
2017-07-23T03:52:40.973Z,20.39
2017-07-23T03:53:07.076Z,20.44
2017-07-23T03:53:33.187Z,20.51
2017-07-23T03:53:59.342Z,20.43
2017-07-23T03:54:25.476Z,20.5
2017-07-23T03:54:51.592Z,20.5
2017-07-23T03:55:17.768Z,20.51
2017-07-23T03:55:43.902Z,20.44
2017-07-23T03:56:10.019Z,20.39
2017-07-23T03:56:36.231Z,20.48
2017-07-23T03:57:02.323Z,20.43
2017-07-23T03:57:28.530Z,20.29
2017-07-23T03:57:54.636Z,20.43
2017-07-23T03:58:20.775Z,20.36
2017-07-23T03:58:46.922Z,20.37
2017-07-23T03:59:13.028Z,20.28
2017-07-23T03:59:39.170Z,20.32
2017-07-23T04:00:05.340Z,20.32
2017-07-23T04:00:31.446Z,20.34
2017-07-23T04:00:57.567Z,20.31
2017-07-23T04:01:23.730Z,20.31
2017-07-23T04:01:49.861Z,20.24
2017-07-23T04:02:15.962Z,20.14
2017-07-23T04:02:42.153Z,20.18
2017-07-23T04:03:08.247Z,20.06
2017-07-23T04:03:34.411Z,20.07
2017-07-23T04:04:00.571Z,20.1
2017-07-23T04:04:26.691Z,20.09
2017-07-23T04:04:52.777Z,20.09
2017-07-23T04:05:18.888Z,20.13
2017-07-23T04:05:45.063Z,20.1
2017-07-23T04:06:11.199Z,20.21
2017-07-23T04:06:37.411Z,20.21
2017-07-23T04:07:03.511Z,20.13
2017-07-23T04:07:29.636Z,20.24
2017-07-23T04:07:55.782Z,20.24
2017-07-23T04:08:21.898Z,20.26
2017-07-23T04:08:48.062Z,20.26
2017-07-23T04:09:14.216Z,20.29
2017-07-23T04:09:40.308Z,20.28
2017-07-23T04:10:06.469Z,20.32
2017-07-23T04:10:32.596Z,20.31
2017-07-23T04:10:58.735Z,20.4
2017-07-23T04:11:24.916Z,20.34
2017-07-23T04:11:51.103Z,20.39
2017-07-23T04:12:17.266Z,20.28
2017-07-23T04:12:43.490Z,20.41
2017-07-23T04:13:09.610Z,20.4
2017-07-23T04:13:35.717Z,20.31
2017-07-23T04:14:01.845Z,20.28
2017-07-23T04:14:27.958Z,20.36
2017-07-23T04:14:54.119Z,20.41
2017-07-23T04:15:20.283Z,20.39
2017-07-23T04:15:46.424Z,20.36
2017-07-23T04:16:12.551Z,20.4
2017-07-23T04:16:38.684Z,20.44
2017-07-23T04:17:04.772Z,20.48
2017-07-23T04:17:30.894Z,20.41
2017-07-23T04:17:57.079Z,20.37
2017-07-23T04:18:23.248Z,20.4
2017-07-23T04:18:49.387Z,20.47
2017-07-23T04:19:15.551Z,20.39
2017-07-23T04:19:41.753Z,20.41
2017-07-23T04:20:07.891Z,20.32
2017-07-23T04:20:34.049Z,20.43
2017-07-23T04:21:00.176Z,20.43
2017-07-23T04:21:26.313Z,20.41
2017-07-23T04:21:52.419Z,20.47
2017-07-23T04:22:18.608Z,20.48
2017-07-23T04:22:44.697Z,20.47
2017-07-23T04:23:10.867Z,20.4
2017-07-23T04:23:37.030Z,20.29
2017-07-23T04:24:03.173Z,20.31
2017-07-23T04:24:29.303Z,20.31
2017-07-23T04:24:55.490Z,20.32
2017-07-23T04:25:21.674Z,20.31
2017-07-23T04:25:47.864Z,20.28
2017-07-23T04:26:13.998Z,20.34
2017-07-23T04:26:40.098Z,20.29
2017-07-23T04:27:06.262Z,20.37
2017-07-23T04:27:32.376Z,20.32
2017-07-23T04:27:58.539Z,20.44
2017-07-23T04:28:24.654Z,20.26
2017-07-23T04:28:50.795Z,20.26
2017-07-23T04:29:16.889Z,20.25
2017-07-23T04:29:43.076Z,20.24
2017-07-23T04:30:09.220Z,20.26
2017-07-23T04:30:35.405Z,20.21
2017-07-23T04:31:01.524Z,20.24
2017-07-23T04:31:27.694Z,20.22
2017-07-23T04:31:53.827Z,20.19
2017-07-23T04:32:19.920Z,20.16
2017-07-23T04:32:46.061Z,20.22
2017-07-23T04:33:12.225Z,20.19
2017-07-23T04:33:38.352Z,20.11
2017-07-23T04:34:04.464Z,20.07
2017-07-23T04:34:30.627Z,20.06
2017-07-23T04:34:56.784Z,20.03
2017-07-23T04:35:22.928Z,20
2017-07-23T04:35:49.023Z,19.88
2017-07-23T04:36:15.138Z,19.85
2017-07-23T04:36:41.353Z,19.84
2017-07-23T04:37:07.477Z,19.77
2017-07-23T04:37:33.568Z,19.82
2017-07-23T04:37:59.698Z,19.79
2017-07-23T04:38:25.825Z,19.82
2017-07-23T04:38:51.964Z,19.81
2017-07-23T04:39:18.118Z,19.92
2017-07-23T04:39:44.279Z,19.85
2017-07-23T04:40:10.389Z,19.84
2017-07-23T04:40:36.539Z,19.91
2017-07-23T04:41:02.631Z,19.77
2017-07-23T04:41:28.764Z,19.86
2017-07-23T04:41:54.946Z,19.84
2017-07-23T04:42:21.063Z,19.86
2017-07-23T04:42:47.267Z,19.79
2017-07-23T04:43:13.428Z,19.79
2017-07-23T04:43:39.544Z,19.69
2017-07-23T04:44:05.697Z,19.63
2017-07-23T04:44:31.829Z,19.7
2017-07-23T04:44:57.946Z,19.59
2017-07-23T04:45:24.093Z,19.51
2017-07-23T04:45:50.225Z,19.54
2017-07-23T04:46:16.317Z,19.48
2017-07-23T04:46:42.499Z,19.51
2017-07-23T04:47:08.585Z,19.4
2017-07-23T04:47:34.735Z,19.37
2017-07-23T04:48:00.895Z,19.44
2017-07-23T04:48:27.038Z,19.48
2017-07-23T04:48:53.160Z,19.48
2017-07-23T04:49:19.323Z,19.49
2017-07-23T04:49:45.493Z,19.55
2017-07-23T04:50:11.661Z,19.58
2017-07-23T04:50:37.816Z,19.58
2017-07-23T04:51:03.913Z,19.56
2017-07-23T04:51:30.053Z,19.48
2017-07-23T04:51:56.211Z,19.54
2017-07-23T04:52:22.377Z,19.4
2017-07-23T04:52:48.484Z,19.34
2017-07-23T04:53:14.625Z,19.41
2017-07-23T04:53:40.767Z,19.41
2017-07-23T04:54:06.954Z,19.48
2017-07-23T04:54:33.080Z,19.54
2017-07-23T04:54:59.216Z,19.62
2017-07-23T04:55:25.349Z,19.54
2017-07-23T04:55:51.477Z,19.64
2017-07-23T04:56:17.591Z,19.59
2017-07-23T04:56:43.719Z,19.62
2017-07-23T04:57:09.853Z,19.67
2017-07-23T04:57:35.998Z,19.63
2017-07-23T04:58:02.145Z,19.71
2017-07-23T04:58:28.306Z,19.66
2017-07-23T04:58:54.442Z,19.7
2017-07-23T04:59:20.599Z,19.77
2017-07-23T04:59:46.716Z,19.71
2017-07-23T05:00:12.893Z,19.67
2017-07-23T05:00:39.056Z,19.67
2017-07-23T05:01:05.215Z,19.69
2017-07-23T05:01:31.394Z,19.69
2017-07-23T05:01:57.557Z,19.76
2017-07-23T05:02:23.695Z,19.7
2017-07-23T05:02:49.815Z,19.71
2017-07-23T05:03:15.975Z,19.77
2017-07-23T05:03:42.069Z,19.69
2017-07-23T05:04:08.209Z,19.84
2017-07-23T05:04:34.347Z,19.79
2017-07-23T05:05:00.501Z,19.84
2017-07-23T05:05:26.665Z,19.82
2017-07-23T05:05:52.821Z,19.79
2017-07-23T05:06:18.948Z,19.69
2017-07-23T05:06:45.064Z,19.69
2017-07-23T05:07:11.195Z,19.73
2017-07-23T05:07:37.331Z,19.69
2017-07-23T05:08:03.469Z,19.67
2017-07-23T05:08:29.618Z,19.7
2017-07-23T05:08:55.715Z,19.7
2017-07-23T05:09:21.844Z,19.64
2017-07-23T05:09:47.973Z,19.67
2017-07-23T05:10:14.088Z,19.58
2017-07-23T05:10:40.216Z,19.67
2017-07-23T05:11:06.353Z,19.64
2017-07-23T05:11:32.490Z,19.69
2017-07-23T05:11:58.616Z,19.66
2017-07-23T05:12:24.751Z,19.71
2017-07-23T05:12:50.894Z,19.71
2017-07-23T05:13:17.040Z,19.69
2017-07-23T05:13:43.175Z,19.69
2017-07-23T05:14:09.322Z,19.64
2017-07-23T05:14:35.456Z,19.59
2017-07-23T05:15:01.571Z,19.59
2017-07-23T05:15:27.694Z,19.63
2017-07-23T05:15:53.856Z,19.56
2017-07-23T05:16:19.969Z,19.51
2017-07-23T05:16:46.064Z,19.51
2017-07-23T05:17:12.226Z,19.56
2017-07-23T05:17:38.397Z,19.58
2017-07-23T05:18:04.511Z,19.55
2017-07-23T05:18:30.700Z,19.56
2017-07-23T05:18:56.799Z,19.59
2017-07-23T05:19:22.964Z,19.66
2017-07-23T05:19:49.123Z,19.66
2017-07-23T05:20:15.292Z,19.67
2017-07-23T05:20:41.450Z,19.64
2017-07-23T05:21:07.593Z,19.67
2017-07-23T05:21:33.732Z,19.77
2017-07-23T05:21:59.843Z,19.67
2017-07-23T05:22:25.968Z,19.73
2017-07-23T05:22:52.080Z,19.77
2017-07-23T05:23:18.214Z,19.77
2017-07-23T05:23:44.341Z,19.81
2017-07-23T05:24:10.456Z,19.74
2017-07-23T05:24:36.585Z,19.82
2017-07-23T05:25:02.733Z,19.82
2017-07-23T05:25:28.864Z,19.77
2017-07-23T05:25:55.019Z,19.88
2017-07-23T05:26:21.177Z,19.96
2017-07-23T05:26:47.310Z,19.89
2017-07-23T05:27:13.411Z,19.91
2017-07-23T05:27:39.529Z,19.95
2017-07-23T05:28:05.678Z,19.95
2017-07-23T05:28:31.868Z,19.92
2017-07-23T05:28:57.982Z,20.03
2017-07-23T05:29:24.130Z,19.95
2017-07-23T05:29:50.291Z,19.94
2017-07-23T05:30:16.437Z,19.96
2017-07-23T05:30:42.631Z,20
2017-07-23T05:31:08.779Z,20.02
2017-07-23T05:31:34.936Z,19.91
2017-07-23T05:32:01.069Z,19.88
2017-07-23T05:32:27.184Z,19.92
2017-07-23T05:32:53.338Z,19.91
2017-07-23T05:33:19.442Z,19.96
2017-07-23T05:33:45.556Z,20
2017-07-23T05:34:11.701Z,20.03
2017-07-23T05:34:37.890Z,20.03
2017-07-23T05:35:04.062Z,20.11
2017-07-23T05:35:30.197Z,19.96
2017-07-23T05:35:56.357Z,20.02
2017-07-23T05:36:22.538Z,20.09
2017-07-23T05:36:48.720Z,19.92
2017-07-23T05:37:14.887Z,20.09
2017-07-23T05:37:41.036Z,20.14
2017-07-23T05:38:07.220Z,20.11
2017-07-23T05:38:33.310Z,20.18